sensor_id;sensor_type;location;lat;lon;timestamp;P1;durP1;ratioP1;P2;durP2;ratioP2
19084;SDS011;9675;51.538;6.728;2023-02-19T00:01:22;13.77;;;7.20;;
19084;SDS011;9675;51.538;6.728;2023-02-19T00:03:51;7.27;;;3.93;;
19084;SDS011;9675;51.538;6.728;2023-02-19T00:06:22;11.20;;;6.43;;
19084;SDS011;9675;51.538;6.728;2023-02-19T00:08:51;13.87;;;7.03;;
19084;SDS011;9675;51.538;6.728;2023-02-19T00:11:21;11.03;;;5.47;;
19084;SDS011;9675;51.538;6.728;2023-02-19T00:13:52;13.67;;;7.77;;
19084;SDS011;9675;51.538;6.728;2023-02-19T00:16:22;10.60;;;4.93;;
19084;SDS011;9675;51.538;6.728;2023-02-19T00:18:51;14.13;;;8.00;;
19084;SDS011;9675;51.538;6.728;2023-02-19T00:21:20;15.53;;;7.67;;
19084;SDS011;9675;51.538;6.728;2023-02-19T00:23:48;9.83;;;5.27;;
19084;SDS011;9675;51.538;6.728;2023-02-19T00:26:16;13.53;;;5.87;;
19084;SDS011;9675;51.538;6.728;2023-02-19T00:28:45;11.87;;;6.50;;
19084;SDS011;9675;51.538;6.728;2023-02-19T00:31:14;8.57;;;4.30;;
19084;SDS011;9675;51.538;6.728;2023-02-19T00:33:45;10.83;;;5.30;;
19084;SDS011;9675;51.538;6.728;2023-02-19T00:36:14;9.93;;;4.90;;
19084;SDS011;9675;51.538;6.728;2023-02-19T00:38:42;8.50;;;5.03;;
19084;SDS011;9675;51.538;6.728;2023-02-19T00:41:10;11.77;;;4.30;;
19084;SDS011;9675;51.538;6.728;2023-02-19T00:43:50;7.03;;;4.27;;
19084;SDS011;9675;51.538;6.728;2023-02-19T00:46:20;9.50;;;4.93;;
19084;SDS011;9675;51.538;6.728;2023-02-19T00:48:49;11.73;;;5.67;;
19084;SDS011;9675;51.538;6.728;2023-02-19T00:51:17;11.17;;;5.00;;
19084;SDS011;9675;51.538;6.728;2023-02-19T00:53:45;14.80;;;4.77;;
19084;SDS011;9675;51.538;6.728;2023-02-19T00:56:13;13.60;;;5.80;;
19084;SDS011;9675;51.538;6.728;2023-02-19T00:58:40;9.33;;;4.73;;
19084;SDS011;9675;51.538;6.728;2023-02-19T01:01:09;15.57;;;6.47;;
19084;SDS011;9675;51.538;6.728;2023-02-19T01:03:37;14.27;;;6.93;;
19084;SDS011;9675;51.538;6.728;2023-02-19T01:06:05;12.67;;;5.63;;
19084;SDS011;9675;51.538;6.728;2023-02-19T01:08:35;29.47;;;13.43;;
19084;SDS011;9675;51.538;6.728;2023-02-19T01:11:03;10.00;;;4.87;;
19084;SDS011;9675;51.538;6.728;2023-02-19T01:13:33;11.70;;;5.47;;
19084;SDS011;9675;51.538;6.728;2023-02-19T01:16:04;14.17;;;6.17;;
19084;SDS011;9675;51.538;6.728;2023-02-19T01:18:35;11.57;;;6.57;;
19084;SDS011;9675;51.538;6.728;2023-02-19T01:21:04;12.40;;;6.23;;
19084;SDS011;9675;51.538;6.728;2023-02-19T01:23:32;12.73;;;6.03;;
19084;SDS011;9675;51.538;6.728;2023-02-19T01:26:00;15.13;;;8.57;;
19084;SDS011;9675;51.538;6.728;2023-02-19T01:28:31;8.33;;;4.00;;
19084;SDS011;9675;51.538;6.728;2023-02-19T01:30:59;12.37;;;5.73;;
19084;SDS011;9675;51.538;6.728;2023-02-19T01:33:28;16.27;;;8.23;;
19084;SDS011;9675;51.538;6.728;2023-02-19T01:35:57;15.63;;;6.67;;
19084;SDS011;9675;51.538;6.728;2023-02-19T01:38:24;15.57;;;8.00;;
19084;SDS011;9675;51.538;6.728;2023-02-19T01:40:54;14.40;;;5.93;;
19084;SDS011;9675;51.538;6.728;2023-02-19T01:43:23;17.53;;;6.30;;
19084;SDS011;9675;51.538;6.728;2023-02-19T01:45:51;11.83;;;6.63;;
19084;SDS011;9675;51.538;6.728;2023-02-19T01:48:20;10.43;;;4.87;;
19084;SDS011;9675;51.538;6.728;2023-02-19T01:50:53;11.43;;;5.83;;
19084;SDS011;9675;51.538;6.728;2023-02-19T01:53:28;9.53;;;5.23;;
19084;SDS011;9675;51.538;6.728;2023-02-19T01:56:01;10.37;;;4.97;;
19084;SDS011;9675;51.538;6.728;2023-02-19T01:58:32;10.43;;;5.80;;
19084;SDS011;9675;51.538;6.728;2023-02-19T02:01:02;14.63;;;6.30;;
19084;SDS011;9675;51.538;6.728;2023-02-19T02:03:34;12.67;;;5.70;;
19084;SDS011;9675;51.538;6.728;2023-02-19T02:06:08;13.60;;;5.43;;
19084;SDS011;9675;51.538;6.728;2023-02-19T02:08:42;14.47;;;6.60;;
19084;SDS011;9675;51.538;6.728;2023-02-19T02:11:29;13.83;;;6.50;;
19084;SDS011;9675;51.538;6.728;2023-02-19T02:13:57;13.50;;;6.47;;
19084;SDS011;9675;51.538;6.728;2023-02-19T02:16:27;12.77;;;6.07;;
19084;SDS011;9675;51.538;6.728;2023-02-19T02:19:09;18.93;;;6.57;;
19084;SDS011;9675;51.538;6.728;2023-02-19T02:22:08;14.87;;;6.10;;
19084;SDS011;9675;51.538;6.728;2023-02-19T02:25:01;12.70;;;5.50;;
19084;SDS011;9675;51.538;6.728;2023-02-19T02:28:21;7.27;;;3.77;;
19084;SDS011;9675;51.538;6.728;2023-02-19T02:31:21;12.73;;;6.80;;
19084;SDS011;9675;51.538;6.728;2023-02-19T02:33:56;14.53;;;5.60;;
19084;SDS011;9675;51.538;6.728;2023-02-19T02:36:32;13.60;;;5.90;;
19084;SDS011;9675;51.538;6.728;2023-02-19T02:39:04;13.20;;;5.93;;
19084;SDS011;9675;51.538;6.728;2023-02-19T02:41:39;12.27;;;5.70;;
19084;SDS011;9675;51.538;6.728;2023-02-19T02:44:10;7.07;;;3.80;;
19084;SDS011;9675;51.538;6.728;2023-02-19T02:46:40;18.03;;;6.60;;
19084;SDS011;9675;51.538;6.728;2023-02-19T02:49:11;10.80;;;5.87;;
19084;SDS011;9675;51.538;6.728;2023-02-19T02:51:48;12.60;;;5.90;;
19084;SDS011;9675;51.538;6.728;2023-02-19T02:54:20;15.23;;;6.77;;
19084;SDS011;9675;51.538;6.728;2023-02-19T02:57:10;12.73;;;4.90;;
19084;SDS011;9675;51.538;6.728;2023-02-19T02:59:40;13.00;;;6.00;;
19084;SDS011;9675;51.538;6.728;2023-02-19T03:02:11;11.70;;;5.93;;
19084;SDS011;9675;51.538;6.728;2023-02-19T03:04:45;8.43;;;4.77;;
19084;SDS011;9675;51.538;6.728;2023-02-19T03:07:38;9.57;;;4.73;;
19084;SDS011;9675;51.538;6.728;2023-02-19T03:10:13;17.17;;;6.00;;
19084;SDS011;9675;51.538;6.728;2023-02-19T03:12:45;17.30;;;6.83;;
19084;SDS011;9675;51.538;6.728;2023-02-19T03:15:38;13.33;;;4.97;;
19084;SDS011;9675;51.538;6.728;2023-02-19T03:18:28;14.97;;;5.60;;
19084;SDS011;9675;51.538;6.728;2023-02-19T03:21:16;8.30;;;3.43;;
19084;SDS011;9675;51.538;6.728;2023-02-19T03:23:47;12.47;;;4.83;;
19084;SDS011;9675;51.538;6.728;2023-02-19T03:26:33;15.20;;;5.17;;
19084;SDS011;9675;51.538;6.728;2023-02-19T03:29:04;9.90;;;4.23;;
19084;SDS011;9675;51.538;6.728;2023-02-19T03:31:48;9.00;;;4.47;;
19084;SDS011;9675;51.538;6.728;2023-02-19T03:34:22;8.97;;;3.53;;
19084;SDS011;9675;51.538;6.728;2023-02-19T03:36:55;7.07;;;2.80;;
19084;SDS011;9675;51.538;6.728;2023-02-19T03:39:31;4.73;;;2.63;;
19084;SDS011;9675;51.538;6.728;2023-02-19T03:42:09;18.80;;;6.23;;
19084;SDS011;9675;51.538;6.728;2023-02-19T03:44:49;5.30;;;1.80;;
19084;SDS011;9675;51.538;6.728;2023-02-19T03:47:33;10.53;;;3.47;;
19084;SDS011;9675;51.538;6.728;2023-02-19T03:50:11;11.83;;;4.27;;
19084;SDS011;9675;51.538;6.728;2023-02-19T03:52:46;7.50;;;3.63;;
19084;SDS011;9675;51.538;6.728;2023-02-19T03:55:25;7.90;;;4.07;;
19084;SDS011;9675;51.538;6.728;2023-02-19T03:58:03;7.10;;;2.90;;
19084;SDS011;9675;51.538;6.728;2023-02-19T04:00:37;8.27;;;3.97;;
19084;SDS011;9675;51.538;6.728;2023-02-19T04:03:14;9.17;;;4.00;;
19084;SDS011;9675;51.538;6.728;2023-02-19T04:05:49;16.13;;;3.57;;
19084;SDS011;9675;51.538;6.728;2023-02-19T04:08:23;13.90;;;4.20;;
19084;SDS011;9675;51.538;6.728;2023-02-19T04:10:53;10.03;;;4.43;;
19084;SDS011;9675;51.538;6.728;2023-02-19T04:13:25;15.20;;;4.70;;
19084;SDS011;9675;51.538;6.728;2023-02-19T04:15:59;7.57;;;3.63;;
19084;SDS011;9675;51.538;6.728;2023-02-19T04:18:32;8.13;;;3.40;;
19084;SDS011;9675;51.538;6.728;2023-02-19T04:21:06;5.60;;;2.73;;
19084;SDS011;9675;51.538;6.728;2023-02-19T04:23:35;13.27;;;4.00;;
19084;SDS011;9675;51.538;6.728;2023-02-19T04:26:07;8.30;;;3.17;;
19084;SDS011;9675;51.538;6.728;2023-02-19T04:28:37;4.33;;;1.80;;
19084;SDS011;9675;51.538;6.728;2023-02-19T04:31:07;14.97;;;4.93;;
19084;SDS011;9675;51.538;6.728;2023-02-19T04:33:34;2.83;;;2.13;;
19084;SDS011;9675;51.538;6.728;2023-02-19T04:36:02;4.90;;;2.80;;
19084;SDS011;9675;51.538;6.728;2023-02-19T04:38:31;9.93;;;3.37;;
19084;SDS011;9675;51.538;6.728;2023-02-19T04:40:58;10.93;;;2.70;;
19084;SDS011;9675;51.538;6.728;2023-02-19T04:43:25;6.77;;;3.73;;
19084;SDS011;9675;51.538;6.728;2023-02-19T04:45:51;3.63;;;2.60;;
19084;SDS011;9675;51.538;6.728;2023-02-19T04:48:18;13.83;;;3.53;;
19084;SDS011;9675;51.538;6.728;2023-02-19T04:50:45;10.63;;;4.00;;
19084;SDS011;9675;51.538;6.728;2023-02-19T04:53:12;9.27;;;4.07;;
19084;SDS011;9675;51.538;6.728;2023-02-19T04:55:41;8.43;;;4.57;;
19084;SDS011;9675;51.538;6.728;2023-02-19T04:58:08;8.77;;;2.17;;
19084;SDS011;9675;51.538;6.728;2023-02-19T05:00:35;6.93;;;3.83;;
19084;SDS011;9675;51.538;6.728;2023-02-19T05:03:02;17.87;;;4.33;;
19084;SDS011;9675;51.538;6.728;2023-02-19T05:05:29;4.83;;;2.67;;
19084;SDS011;9675;51.538;6.728;2023-02-19T05:07:56;5.80;;;3.20;;
19084;SDS011;9675;51.538;6.728;2023-02-19T05:10:23;6.73;;;3.17;;
19084;SDS011;9675;51.538;6.728;2023-02-19T05:12:53;6.30;;;3.13;;
19084;SDS011;9675;51.538;6.728;2023-02-19T05:15:20;3.93;;;2.33;;
19084;SDS011;9675;51.538;6.728;2023-02-19T05:17:47;6.93;;;3.87;;
19084;SDS011;9675;51.538;6.728;2023-02-19T05:20:14;9.30;;;3.60;;
19084;SDS011;9675;51.538;6.728;2023-02-19T05:22:41;6.80;;;1.70;;
19084;SDS011;9675;51.538;6.728;2023-02-19T05:25:08;9.13;;;3.03;;
19084;SDS011;9675;51.538;6.728;2023-02-19T05:27:35;3.63;;;1.57;;
19084;SDS011;9675;51.538;6.728;2023-02-19T05:30:03;7.83;;;3.57;;
19084;SDS011;9675;51.538;6.728;2023-02-19T05:32:33;6.40;;;3.20;;
19084;SDS011;9675;51.538;6.728;2023-02-19T05:35:01;8.70;;;3.20;;
19084;SDS011;9675;51.538;6.728;2023-02-19T05:37:28;10.00;;;3.87;;
19084;SDS011;9675;51.538;6.728;2023-02-19T05:39:55;8.07;;;1.97;;
19084;SDS011;9675;51.538;6.728;2023-02-19T05:42:22;13.27;;;4.00;;
19084;SDS011;9675;51.538;6.728;2023-02-19T05:44:49;10.97;;;2.90;;
19084;SDS011;9675;51.538;6.728;2023-02-19T05:47:18;7.37;;;3.30;;
19084;SDS011;9675;51.538;6.728;2023-02-19T05:49:45;4.20;;;2.23;;
19084;SDS011;9675;51.538;6.728;2023-02-19T05:52:12;4.73;;;2.57;;
19084;SDS011;9675;51.538;6.728;2023-02-19T05:54:39;1.43;;;0.70;;
19084;SDS011;9675;51.538;6.728;2023-02-19T05:57:06;4.90;;;2.33;;
19084;SDS011;9675;51.538;6.728;2023-02-19T05:59:33;7.07;;;3.27;;
19084;SDS011;9675;51.538;6.728;2023-02-19T06:02:00;9.70;;;5.33;;
19084;SDS011;9675;51.538;6.728;2023-02-19T06:04:28;7.77;;;3.10;;
19084;SDS011;9675;51.538;6.728;2023-02-19T06:06:55;7.50;;;3.03;;
19084;SDS011;9675;51.538;6.728;2023-02-19T06:09:22;7.40;;;2.97;;
19084;SDS011;9675;51.538;6.728;2023-02-19T06:11:49;3.50;;;2.17;;
19084;SDS011;9675;51.538;6.728;2023-02-19T06:14:16;2.70;;;1.77;;
19084;SDS011;9675;51.538;6.728;2023-02-19T06:16:43;9.20;;;3.90;;
19084;SDS011;9675;51.538;6.728;2023-02-19T06:19:10;3.10;;;1.70;;
19084;SDS011;9675;51.538;6.728;2023-02-19T06:21:38;9.30;;;3.67;;
19084;SDS011;9675;51.538;6.728;2023-02-19T06:24:06;6.13;;;3.13;;
19084;SDS011;9675;51.538;6.728;2023-02-19T06:26:34;9.53;;;1.60;;
19084;SDS011;9675;51.538;6.728;2023-02-19T06:29:02;7.90;;;3.90;;
19084;SDS011;9675;51.538;6.728;2023-02-19T06:31:29;8.90;;;3.50;;
19084;SDS011;9675;51.538;6.728;2023-02-19T06:33:56;7.07;;;3.13;;
19084;SDS011;9675;51.538;6.728;2023-02-19T06:36:23;4.90;;;2.43;;
19084;SDS011;9675;51.538;6.728;2023-02-19T06:38:52;7.83;;;3.63;;
19084;SDS011;9675;51.538;6.728;2023-02-19T06:41:19;2.70;;;2.03;;
19084;SDS011;9675;51.538;6.728;2023-02-19T06:43:46;5.57;;;2.67;;
19084;SDS011;9675;51.538;6.728;2023-02-19T06:46:12;7.13;;;2.70;;
19084;SDS011;9675;51.538;6.728;2023-02-19T06:48:40;5.13;;;2.63;;
19084;SDS011;9675;51.538;6.728;2023-02-19T06:51:10;5.90;;;2.23;;
19084;SDS011;9675;51.538;6.728;2023-02-19T06:53:38;15.60;;;6.33;;
19084;SDS011;9675;51.538;6.728;2023-02-19T06:56:20;7.37;;;2.77;;
19084;SDS011;9675;51.538;6.728;2023-02-19T06:58:50;7.53;;;3.27;;
19084;SDS011;9675;51.538;6.728;2023-02-19T07:01:18;5.60;;;2.50;;
19084;SDS011;9675;51.538;6.728;2023-02-19T07:03:45;4.70;;;2.60;;
19084;SDS011;9675;51.538;6.728;2023-02-19T07:06:12;1.20;;;0.73;;
19084;SDS011;9675;51.538;6.728;2023-02-19T07:08:39;5.20;;;2.00;;
19084;SDS011;9675;51.538;6.728;2023-02-19T07:11:08;5.23;;;2.83;;
19084;SDS011;9675;51.538;6.728;2023-02-19T07:13:35;4.10;;;2.63;;
19084;SDS011;9675;51.538;6.728;2023-02-19T07:16:03;4.67;;;2.00;;
19084;SDS011;9675;51.538;6.728;2023-02-19T07:18:33;4.87;;;1.60;;
19084;SDS011;9675;51.538;6.728;2023-02-19T07:21:01;5.80;;;2.00;;
19084;SDS011;9675;51.538;6.728;2023-02-19T07:23:28;3.73;;;2.13;;
19084;SDS011;9675;51.538;6.728;2023-02-19T07:25:56;2.47;;;1.63;;
19084;SDS011;9675;51.538;6.728;2023-02-19T07:28:25;9.10;;;2.87;;
19084;SDS011;9675;51.538;6.728;2023-02-19T07:30:52;3.30;;;1.77;;
19084;SDS011;9675;51.538;6.728;2023-02-19T07:33:19;5.47;;;2.90;;
19084;SDS011;9675;51.538;6.728;2023-02-19T07:35:47;6.03;;;3.23;;
19084;SDS011;9675;51.538;6.728;2023-02-19T07:38:16;5.93;;;3.53;;
19084;SDS011;9675;51.538;6.728;2023-02-19T07:40:49;10.77;;;2.93;;
19084;SDS011;9675;51.538;6.728;2023-02-19T07:43:17;6.63;;;3.03;;
19084;SDS011;9675;51.538;6.728;2023-02-19T07:45:45;4.50;;;2.13;;
19084;SDS011;9675;51.538;6.728;2023-02-19T07:48:13;8.60;;;3.47;;
19084;SDS011;9675;51.538;6.728;2023-02-19T07:50:40;4.03;;;2.57;;
19084;SDS011;9675;51.538;6.728;2023-02-19T07:53:07;8.23;;;2.93;;
19084;SDS011;9675;51.538;6.728;2023-02-19T07:55:34;7.57;;;2.47;;
19084;SDS011;9675;51.538;6.728;2023-02-19T07:58:01;5.17;;;2.70;;
19084;SDS011;9675;51.538;6.728;2023-02-19T08:00:28;7.63;;;3.20;;
19084;SDS011;9675;51.538;6.728;2023-02-19T08:02:57;6.00;;;2.30;;
19084;SDS011;9675;51.538;6.728;2023-02-19T08:05:27;5.33;;;2.03;;
19084;SDS011;9675;51.538;6.728;2023-02-19T08:07:56;9.70;;;3.10;;
19084;SDS011;9675;51.538;6.728;2023-02-19T08:10:24;7.40;;;3.13;;
19084;SDS011;9675;51.538;6.728;2023-02-19T08:13:10;7.47;;;2.10;;
19084;SDS011;9675;51.538;6.728;2023-02-19T08:15:47;4.83;;;2.13;;
19084;SDS011;9675;51.538;6.728;2023-02-19T08:18:18;7.10;;;3.70;;
19084;SDS011;9675;51.538;6.728;2023-02-19T08:20:47;10.17;;;2.77;;
19084;SDS011;9675;51.538;6.728;2023-02-19T08:23:15;3.37;;;1.63;;
19084;SDS011;9675;51.538;6.728;2023-02-19T08:25:44;6.70;;;2.60;;
19084;SDS011;9675;51.538;6.728;2023-02-19T08:28:15;7.03;;;2.27;;
19084;SDS011;9675;51.538;6.728;2023-02-19T08:30:43;12.23;;;4.10;;
19084;SDS011;9675;51.538;6.728;2023-02-19T08:33:13;5.47;;;2.13;;
19084;SDS011;9675;51.538;6.728;2023-02-19T08:35:45;7.93;;;3.20;;
19084;SDS011;9675;51.538;6.728;2023-02-19T08:38:13;7.57;;;2.60;;
19084;SDS011;9675;51.538;6.728;2023-02-19T08:40:41;9.33;;;3.23;;
19084;SDS011;9675;51.538;6.728;2023-02-19T08:43:09;15.10;;;3.30;;
19084;SDS011;9675;51.538;6.728;2023-02-19T08:45:39;6.93;;;3.33;;
19084;SDS011;9675;51.538;6.728;2023-02-19T08:48:09;8.40;;;3.20;;
19084;SDS011;9675;51.538;6.728;2023-02-19T08:50:38;6.93;;;1.97;;
19084;SDS011;9675;51.538;6.728;2023-02-19T08:53:05;7.17;;;2.93;;
19084;SDS011;9675;51.538;6.728;2023-02-19T08:55:32;8.33;;;2.53;;
19084;SDS011;9675;51.538;6.728;2023-02-19T08:58:02;5.23;;;2.43;;
19084;SDS011;9675;51.538;6.728;2023-02-19T09:00:29;6.03;;;2.40;;
19084;SDS011;9675;51.538;6.728;2023-02-19T09:02:57;9.83;;;2.90;;
19084;SDS011;9675;51.538;6.728;2023-02-19T09:05:24;10.13;;;2.93;;
19084;SDS011;9675;51.538;6.728;2023-02-19T09:07:52;6.90;;;2.90;;
19084;SDS011;9675;51.538;6.728;2023-02-19T09:10:19;6.77;;;2.73;;
19084;SDS011;9675;51.538;6.728;2023-02-19T09:12:46;3.23;;;2.17;;
19084;SDS011;9675;51.538;6.728;2023-02-19T09:15:13;5.10;;;2.20;;
19084;SDS011;9675;51.538;6.728;2023-02-19T09:17:40;5.13;;;2.37;;
19084;SDS011;9675;51.538;6.728;2023-02-19T09:20:07;4.67;;;2.20;;
19084;SDS011;9675;51.538;6.728;2023-02-19T09:22:35;3.00;;;1.63;;
19084;SDS011;9675;51.538;6.728;2023-02-19T09:25:04;6.77;;;2.40;;
19084;SDS011;9675;51.538;6.728;2023-02-19T09:27:31;3.80;;;2.07;;
19084;SDS011;9675;51.538;6.728;2023-02-19T09:29:58;3.70;;;1.50;;
19084;SDS011;9675;51.538;6.728;2023-02-19T09:32:25;16.73;;;7.63;;
19084;SDS011;9675;51.538;6.728;2023-02-19T09:34:56;12.07;;;3.23;;
19084;SDS011;9675;51.538;6.728;2023-02-19T09:37:24;7.73;;;3.00;;
19084;SDS011;9675;51.538;6.728;2023-02-19T09:39:52;6.07;;;2.53;;
19084;SDS011;9675;51.538;6.728;2023-02-19T09:42:21;2.13;;;1.57;;
19084;SDS011;9675;51.538;6.728;2023-02-19T09:44:54;1.63;;;0.93;;
19084;SDS011;9675;51.538;6.728;2023-02-19T09:47:25;6.37;;;2.87;;
19084;SDS011;9675;51.538;6.728;2023-02-19T09:49:55;6.60;;;1.87;;
19084;SDS011;9675;51.538;6.728;2023-02-19T09:52:31;3.50;;;2.00;;
19084;SDS011;9675;51.538;6.728;2023-02-19T09:55:14;10.33;;;1.93;;
19084;SDS011;9675;51.538;6.728;2023-02-19T09:57:49;6.50;;;1.77;;
19084;SDS011;9675;51.538;6.728;2023-02-19T10:00:19;5.53;;;2.23;;
19084;SDS011;9675;51.538;6.728;2023-02-19T10:02:50;7.40;;;2.10;;
19084;SDS011;9675;51.538;6.728;2023-02-19T10:05:19;4.50;;;2.20;;
19084;SDS011;9675;51.538;6.728;2023-02-19T10:07:50;10.37;;;2.73;;
19084;SDS011;9675;51.538;6.728;2023-02-19T10:10:24;4.80;;;1.90;;
19084;SDS011;9675;51.538;6.728;2023-02-19T10:13:04;1.30;;;0.97;;
19084;SDS011;9675;51.538;6.728;2023-02-19T10:15:43;2.87;;;1.37;;
19084;SDS011;9675;51.538;6.728;2023-02-19T10:18:19;3.07;;;1.57;;
19084;SDS011;9675;51.538;6.728;2023-02-19T10:20:50;2.53;;;1.30;;
19084;SDS011;9675;51.538;6.728;2023-02-19T10:23:18;2.23;;;1.30;;
19084;SDS011;9675;51.538;6.728;2023-02-19T10:25:48;1.77;;;1.30;;
19084;SDS011;9675;51.538;6.728;2023-02-19T10:28:23;3.00;;;1.73;;
19084;SDS011;9675;51.538;6.728;2023-02-19T10:30:56;3.80;;;2.30;;
19084;SDS011;9675;51.538;6.728;2023-02-19T10:33:25;5.43;;;1.07;;
19084;SDS011;9675;51.538;6.728;2023-02-19T10:35:56;0.93;;;0.57;;
19084;SDS011;9675;51.538;6.728;2023-02-19T10:38:27;8.23;;;1.63;;
19084;SDS011;9675;51.538;6.728;2023-02-19T10:41:02;2.47;;;0.80;;
19084;SDS011;9675;51.538;6.728;2023-02-19T10:43:36;6.53;;;2.00;;
19084;SDS011;9675;51.538;6.728;2023-02-19T10:46:13;3.07;;;1.37;;
19084;SDS011;9675;51.538;6.728;2023-02-19T10:48:44;3.07;;;1.30;;
19084;SDS011;9675;51.538;6.728;2023-02-19T10:51:17;2.73;;;1.70;;
19084;SDS011;9675;51.538;6.728;2023-02-19T10:53:49;6.70;;;2.50;;
19084;SDS011;9675;51.538;6.728;2023-02-19T10:56:29;1.03;;;0.83;;
19084;SDS011;9675;51.538;6.728;2023-02-19T10:59:12;4.50;;;1.37;;
19084;SDS011;9675;51.538;6.728;2023-02-19T11:01:54;8.50;;;5.93;;
19084;SDS011;9675;51.538;6.728;2023-02-19T11:04:24;5.50;;;2.50;;
19084;SDS011;9675;51.538;6.728;2023-02-19T11:06:53;1.13;;;0.63;;
19084;SDS011;9675;51.538;6.728;2023-02-19T11:09:23;7.27;;;3.93;;
19084;SDS011;9675;51.538;6.728;2023-02-19T11:11:56;8.03;;;5.67;;
19084;SDS011;9675;51.538;6.728;2023-02-19T11:14:25;3.77;;;2.10;;
19084;SDS011;9675;51.538;6.728;2023-02-19T11:16:56;1.73;;;1.43;;
19084;SDS011;9675;51.538;6.728;2023-02-19T11:19:28;5.10;;;3.00;;
19084;SDS011;9675;51.538;6.728;2023-02-19T11:22:02;4.47;;;2.63;;
19084;SDS011;9675;51.538;6.728;2023-02-19T11:24:53;9.67;;;6.20;;
19084;SDS011;9675;51.538;6.728;2023-02-19T11:27:21;8.13;;;1.83;;
19084;SDS011;9675;51.538;6.728;2023-02-19T11:29:51;2.80;;;1.70;;
19084;SDS011;9675;51.538;6.728;2023-02-19T11:32:22;4.30;;;2.90;;
19084;SDS011;9675;51.538;6.728;2023-02-19T11:35:14;5.03;;;2.83;;
19084;SDS011;9675;51.538;6.728;2023-02-19T11:37:51;4.33;;;2.40;;
19084;SDS011;9675;51.538;6.728;2023-02-19T11:43:25;3.53;;;2.00;;
19084;SDS011;9675;51.538;6.728;2023-02-19T11:46:15;6.00;;;3.30;;
19084;SDS011;9675;51.538;6.728;2023-02-19T11:48:51;3.47;;;2.10;;
19084;SDS011;9675;51.538;6.728;2023-02-19T11:51:33;13.30;;;7.30;;
19084;SDS011;9675;51.538;6.728;2023-02-19T11:54:39;7.60;;;3.53;;
19084;SDS011;9675;51.538;6.728;2023-02-19T11:57:23;21.63;;;8.23;;
19084;SDS011;9675;51.538;6.728;2023-02-19T12:00:14;4.73;;;2.70;;
19084;SDS011;9675;51.538;6.728;2023-02-19T12:06:06;8.43;;;1.70;;
19084;SDS011;9675;51.538;6.728;2023-02-19T12:09:02;1.87;;;1.10;;
19084;SDS011;9675;51.538;6.728;2023-02-19T12:11:53;4.43;;;1.87;;
19084;SDS011;9675;51.538;6.728;2023-02-19T12:14:58;3.07;;;1.77;;
19084;SDS011;9675;51.538;6.728;2023-02-19T12:21:08;2.27;;;0.97;;
19084;SDS011;9675;51.538;6.728;2023-02-19T12:23:55;10.70;;;1.00;;
19084;SDS011;9675;51.538;6.728;2023-02-19T12:27:00;3.60;;;1.13;;
19084;SDS011;9675;51.538;6.728;2023-02-19T12:29:49;0.90;;;0.63;;
19084;SDS011;9675;51.538;6.728;2023-02-19T12:33:02;0.63;;;0.50;;
19084;SDS011;9675;51.538;6.728;2023-02-19T12:36:08;0.27;;;0.17;;
19084;SDS011;9675;51.538;6.728;2023-02-19T12:38:46;1.10;;;0.60;;
19084;SDS011;9675;51.538;6.728;2023-02-19T12:41:28;4.63;;;0.57;;
19084;SDS011;9675;51.538;6.728;2023-02-19T12:44:08;1.20;;;0.50;;
19084;SDS011;9675;51.538;6.728;2023-02-19T12:46:43;0.87;;;0.67;;
19084;SDS011;9675;51.538;6.728;2023-02-19T12:49:21;0.77;;;0.77;;
19084;SDS011;9675;51.538;6.728;2023-02-19T12:51:53;1.33;;;0.60;;
19084;SDS011;9675;51.538;6.728;2023-02-19T12:54:25;0.93;;;0.67;;
19084;SDS011;9675;51.538;6.728;2023-02-19T12:57:00;2.53;;;1.30;;
19084;SDS011;9675;51.538;6.728;2023-02-19T12:59:35;0.90;;;0.83;;
19084;SDS011;9675;51.538;6.728;2023-02-19T13:02:11;1.13;;;0.93;;
19084;SDS011;9675;51.538;6.728;2023-02-19T13:04:48;1.30;;;0.57;;
19084;SDS011;9675;51.538;6.728;2023-02-19T13:07:24;6.47;;;0.60;;
19084;SDS011;9675;51.538;6.728;2023-02-19T13:10:03;3.23;;;1.27;;
19084;SDS011;9675;51.538;6.728;2023-02-19T13:12:50;3.83;;;2.07;;
19084;SDS011;9675;51.538;6.728;2023-02-19T13:15:25;2.47;;;1.70;;
19084;SDS011;9675;51.538;6.728;2023-02-19T13:18:00;1.70;;;1.47;;
19084;SDS011;9675;51.538;6.728;2023-02-19T13:20:38;7.00;;;4.67;;
19084;SDS011;9675;51.538;6.728;2023-02-19T13:23:10;1.80;;;1.37;;
19084;SDS011;9675;51.538;6.728;2023-02-19T13:29:11;1.60;;;1.03;;
19084;SDS011;9675;51.538;6.728;2023-02-19T13:32:05;0.77;;;0.60;;
19084;SDS011;9675;51.538;6.728;2023-02-19T13:35:18;0.87;;;0.83;;
19084;SDS011;9675;51.538;6.728;2023-02-19T13:37:58;1.77;;;0.97;;
19084;SDS011;9675;51.538;6.728;2023-02-19T13:40:29;2.63;;;1.17;;
19084;SDS011;9675;51.538;6.728;2023-02-19T13:43:00;0.90;;;0.80;;
19084;SDS011;9675;51.538;6.728;2023-02-19T13:45:31;0.87;;;0.47;;
19084;SDS011;9675;51.538;6.728;2023-02-19T13:48:12;2.10;;;1.20;;
19084;SDS011;9675;51.538;6.728;2023-02-19T13:50:50;2.70;;;1.33;;
19084;SDS011;9675;51.538;6.728;2023-02-19T13:54:23;2.80;;;1.53;;
19084;SDS011;9675;51.538;6.728;2023-02-19T13:59:54;3.53;;;1.03;;
19084;SDS011;9675;51.538;6.728;2023-02-19T14:02:27;0.40;;;0.40;;
19084;SDS011;9675;51.538;6.728;2023-02-19T14:04:59;5.63;;;2.73;;
19084;SDS011;9675;51.538;6.728;2023-02-19T14:16:51;2.77;;;1.37;;
19084;SDS011;9675;51.538;6.728;2023-02-19T14:25:34;1.73;;;1.07;;
19084;SDS011;9675;51.538;6.728;2023-02-19T14:28:15;2.20;;;1.47;;
19084;SDS011;9675;51.538;6.728;2023-02-19T14:30:52;1.97;;;1.47;;
19084;SDS011;9675;51.538;6.728;2023-02-19T14:33:23;2.00;;;1.13;;
19084;SDS011;9675;51.538;6.728;2023-02-19T14:35:57;4.87;;;1.47;;
19084;SDS011;9675;51.538;6.728;2023-02-19T14:38:31;5.37;;;2.00;;
19084;SDS011;9675;51.538;6.728;2023-02-19T14:41:04;4.60;;;1.47;;
19084;SDS011;9675;51.538;6.728;2023-02-19T14:43:36;4.23;;;1.40;;
19084;SDS011;9675;51.538;6.728;2023-02-19T14:46:06;4.77;;;1.60;;
19084;SDS011;9675;51.538;6.728;2023-02-19T14:48:52;5.33;;;1.77;;
19084;SDS011;9675;51.538;6.728;2023-02-19T14:51:22;1.73;;;1.20;;
19084;SDS011;9675;51.538;6.728;2023-02-19T14:53:56;6.27;;;1.10;;
19084;SDS011;9675;51.538;6.728;2023-02-19T14:56:35;2.33;;;1.57;;
19084;SDS011;9675;51.538;6.728;2023-02-19T14:59:07;3.83;;;1.77;;
19084;SDS011;9675;51.538;6.728;2023-02-19T15:01:54;3.90;;;1.93;;
19084;SDS011;9675;51.538;6.728;2023-02-19T15:04:25;2.97;;;1.60;;
19084;SDS011;9675;51.538;6.728;2023-02-19T15:06:55;1.60;;;1.20;;
19084;SDS011;9675;51.538;6.728;2023-02-19T15:09:29;1.57;;;0.97;;
19084;SDS011;9675;51.538;6.728;2023-02-19T15:12:01;3.13;;;1.30;;
19084;SDS011;9675;51.538;6.728;2023-02-19T15:14:30;8.70;;;1.80;;
19084;SDS011;9675;51.538;6.728;2023-02-19T15:17:00;5.13;;;2.27;;
19084;SDS011;9675;51.538;6.728;2023-02-19T15:19:30;2.90;;;1.30;;
19084;SDS011;9675;51.538;6.728;2023-02-19T15:22:03;4.27;;;1.20;;
19084;SDS011;9675;51.538;6.728;2023-02-19T15:24:30;2.60;;;1.67;;
19084;SDS011;9675;51.538;6.728;2023-02-19T15:26:57;4.27;;;1.53;;
19084;SDS011;9675;51.538;6.728;2023-02-19T15:29:25;1.53;;;1.00;;
19084;SDS011;9675;51.538;6.728;2023-02-19T15:31:56;3.10;;;2.20;;
19084;SDS011;9675;51.538;6.728;2023-02-19T15:34:27;2.23;;;1.40;;
19084;SDS011;9675;51.538;6.728;2023-02-19T15:36:57;5.00;;;0.90;;
19084;SDS011;9675;51.538;6.728;2023-02-19T15:39:29;4.23;;;1.63;;
19084;SDS011;9675;51.538;6.728;2023-02-19T15:42:03;2.37;;;0.70;;
19084;SDS011;9675;51.538;6.728;2023-02-19T15:44:38;2.47;;;0.90;;
19084;SDS011;9675;51.538;6.728;2023-02-19T15:47:16;3.00;;;1.27;;
19084;SDS011;9675;51.538;6.728;2023-02-19T15:49:52;0.50;;;0.37;;
19084;SDS011;9675;51.538;6.728;2023-02-19T15:52:28;2.33;;;0.63;;
19084;SDS011;9675;51.538;6.728;2023-02-19T15:55:08;0.70;;;0.57;;
19084;SDS011;9675;51.538;6.728;2023-02-19T15:57:51;0.87;;;0.70;;
19084;SDS011;9675;51.538;6.728;2023-02-19T16:00:31;1.73;;;0.53;;
19084;SDS011;9675;51.538;6.728;2023-02-19T16:03:08;0.60;;;0.50;;
19084;SDS011;9675;51.538;6.728;2023-02-19T16:05:43;1.13;;;0.53;;